You are not logged in, Click here to log in
成都雙流國際機場 / ZUUU 中華人民共和國四川省成都市双流县 機場代碼: CTU
ICAO: ZUUU Country: 中華人民共和國四川省成都市双流县 機場代碼: CTU
Latitude: 30.5675 Longitude: 103.949
Total Arrivals: 31 Total Departures: 25
Latest Arrival: BR765 (RCTP-ZUUU)CHU. CHUHAO Latest Departure: BR766 (ZUUU-RCTP)CHU. CHUHAO
Scenery:
METAR : ZUUU 131000Z VRB01MPS 2200 BR SCT040 11/09 Q1022 BECMG TL1100 3000

成都雙流國際機場

You are accessing this site from IP address 100.26.176.182. Virtual Airline. CMS by phpVMS.Website designed by Zumeweb and edited by Theo Bearman.
There is 0 User(s) Online: | and 6 Guest(s) Online.
All information on this site is for fight simulation purposes only. This site is for flight logging for pilots of Virtual Airline&模擬飛行論壇 FlySim only.